Terminal Aerodrome Forecast
Issued by NWS Wilmington, OH

Current Version | Previous Version | Graphics & Text | Print | Product List | Glossary On
Versions: 1 2 3 4 5 6 7 8 9 10 11 12 13 14 15 16 17 18 19 20 21 22 23 24 25
000
FTUS41 KILN 131700
TAFDAY
TAF
KDAY 131740Z 1318/1418 21022G32KT P6SM SCT040 BKN200
     FM132300 19016G23KT P6SM FEW040 BKN150
     FM140900 19018G25KT P6SM -SHRA BKN050 OVC150
     FM141300 20025G37KT P6SM -SHRA OVC060
     FM141700 22024G36KT P6SM -SHRA VCTS SCT030CB OVC050=

USA.gov is the U.S. government's official web portal to all federal, state and local government web resources and services.